createdAt,value
2018-05-17T00:02:07.867Z,5.87
2018-05-17T00:04:34.853Z,5.23
2018-05-17T00:07:01.600Z,5.83
2018-05-17T00:09:27.666Z,5.90
2018-05-17T00:11:53.736Z,6.00
2018-05-17T00:14:19.803Z,6.00
2018-05-17T00:16:45.851Z,5.70
2018-05-17T00:19:11.954Z,6.63
2018-05-17T00:21:38.302Z,7.43
2018-05-17T00:24:04.383Z,6.80
2018-05-17T00:26:30.509Z,6.07
2018-05-17T00:28:56.555Z,5.53
2018-05-17T00:31:22.947Z,6.03
2018-05-17T00:33:49.716Z,5.77
2018-05-17T00:36:15.838Z,4.90
2018-05-17T00:38:43.902Z,6.50
2018-05-17T00:41:09.950Z,5.90
2018-05-17T00:43:36.918Z,5.23
2018-05-17T00:46:03.734Z,7.10
2018-05-17T00:48:29.761Z,7.93
2018-05-17T00:50:55.809Z,5.67
2018-05-17T00:53:30.000Z,8.03
2018-05-17T00:55:56.031Z,7.00
2018-05-17T00:58:22.110Z,7.23
2018-05-17T01:00:48.202Z,5.70
2018-05-17T01:03:14.298Z,8.63
2018-05-17T01:05:40.328Z,7.20
2018-05-17T01:08:06.408Z,6.63
2018-05-17T01:10:32.470Z,8.20
2018-05-17T01:12:58.498Z,7.30
2018-05-17T01:15:24.992Z,6.33
2018-05-17T01:17:51.134Z,6.17
2018-05-17T01:20:17.174Z,9.40
2018-05-17T01:22:43.264Z,6.87
2018-05-17T01:25:09.328Z,6.50
2018-05-17T01:27:35.352Z,7.33
2018-05-17T01:30:01.428Z,7.80
2018-05-17T01:32:27.502Z,6.60
2018-05-17T01:34:53.684Z,7.17
2018-05-17T01:37:31.866Z,6.13
2018-05-17T01:39:57.909Z,6.47
2018-05-17T01:42:23.974Z,7.13
2018-05-17T01:44:50.061Z,6.73
2018-05-17T01:47:16.904Z,7.67
2018-05-17T01:49:43.005Z,6.73
2018-05-17T01:52:09.106Z,7.10
2018-05-17T01:54:35.192Z,7.60
2018-05-17T01:57:01.294Z,7.83
2018-05-17T01:59:27.388Z,7.90
2018-05-17T02:01:53.461Z,8.27
2018-05-17T02:04:19.516Z,7.30
2018-05-17T02:06:45.668Z,5.73
2018-05-17T02:09:11.778Z,8.10
2018-05-17T02:11:38.595Z,7.93
2018-05-17T02:14:04.709Z,8.10
2018-05-17T02:16:30.804Z,8.60
2018-05-17T02:18:57.648Z,8.50
2018-05-17T02:21:23.697Z,8.80
2018-05-17T02:23:50.538Z,8.77
2018-05-17T02:26:16.637Z,8.87
2018-05-17T02:28:42.710Z,9.93
2018-05-17T02:31:08.870Z,10.97
2018-05-17T02:33:35.690Z,13.20
2018-05-17T02:36:01.765Z,13.47
2018-05-17T02:38:28.611Z,12.80
2018-05-17T02:40:55.412Z,13.87
2018-05-17T02:43:21.472Z,11.90
2018-05-17T02:45:47.702Z,11.20
2018-05-17T02:48:13.751Z,11.40
2018-05-17T02:50:39.785Z,12.60
2018-05-17T02:53:05.855Z,10.80
2018-05-17T02:55:31.936Z,11.90
2018-05-17T02:57:57.995Z,12.43
2018-05-17T03:00:24.097Z,12.77
2018-05-17T03:02:50.992Z,11.10
2018-05-17T03:05:17.063Z,11.83
2018-05-17T03:07:43.888Z,12.10
2018-05-17T03:10:09.937Z,10.30
2018-05-17T03:12:35.978Z,11.70
2018-05-17T03:15:02.056Z,12.07
2018-05-17T03:17:28.092Z,9.20
2018-05-17T03:19:54.262Z,10.90
2018-05-17T03:22:20.287Z,10.40
2018-05-17T03:24:46.389Z,11.50
2018-05-17T03:27:13.185Z,9.83
2018-05-17T03:29:39.217Z,10.20
2018-05-17T03:32:05.261Z,10.80
2018-05-17T03:34:31.322Z,8.97
2018-05-17T03:36:57.368Z,9.50
2018-05-17T03:39:23.422Z,7.43
2018-05-17T03:41:50.246Z,8.60
2018-05-17T03:44:17.392Z,9.63
2018-05-17T03:46:43.482Z,9.43
2018-05-17T03:49:10.324Z,7.77
2018-05-17T03:51:36.365Z,8.90
2018-05-17T03:54:02.449Z,8.20
2018-05-17T03:56:28.511Z,8.70
2018-05-17T03:58:54.574Z,9.13
2018-05-17T04:01:32.930Z,11.10
2018-05-17T04:04:11.340Z,7.50
2018-05-17T04:06:40.144Z,9.30
2018-05-17T04:09:06.978Z,8.33
2018-05-17T04:11:33.090Z,8.83
2018-05-17T04:13:59.274Z,8.47
2018-05-17T04:16:25.271Z,8.17
2018-05-17T04:18:51.308Z,7.43
2018-05-17T04:21:17.582Z,8.83
2018-05-17T04:23:44.383Z,7.97
2018-05-17T04:26:10.430Z,9.33
2018-05-17T04:28:36.527Z,7.37
2018-05-17T04:31:03.325Z,7.43
2018-05-17T04:33:29.365Z,8.10
2018-05-17T04:35:55.417Z,8.57
2018-05-17T04:38:21.488Z,7.83
2018-05-17T04:40:47.537Z,8.90
2018-05-17T04:43:13.641Z,8.50
2018-05-17T04:45:39.693Z,7.67
2018-05-17T04:48:05.757Z,7.30
2018-05-17T04:50:31.835Z,8.40
2018-05-17T04:52:57.917Z,8.13
2018-05-17T04:55:24.706Z,8.87
2018-05-17T04:57:50.829Z,10.53
2018-05-17T05:00:17.033Z,8.73
2018-05-17T05:02:43.169Z,10.10
2018-05-17T05:05:09.209Z,8.30
2018-05-17T05:07:35.253Z,10.02
2018-05-17T05:10:01.359Z,9.80
2018-05-17T05:12:27.478Z,9.03
2018-05-17T05:14:53.509Z,8.77
2018-05-17T05:17:19.546Z,8.97
2018-05-17T05:19:45.859Z,8.60
2018-05-17T05:22:12.675Z,9.83
2018-05-17T05:24:39.457Z,10.77
2018-05-17T05:27:05.634Z,9.37
2018-05-17T05:29:31.729Z,9.70
2018-05-17T05:31:57.998Z,9.17
2018-05-17T05:34:24.326Z,8.87
2018-05-17T05:36:51.111Z,9.93
2018-05-17T05:39:17.163Z,8.60
2018-05-17T05:41:43.253Z,9.10
2018-05-17T05:44:10.098Z,9.30
2018-05-17T05:46:36.223Z,8.53
2018-05-17T05:49:02.329Z,8.13
2018-05-17T05:51:28.373Z,7.93
2018-05-17T05:53:54.462Z,7.70
2018-05-17T05:56:20.489Z,7.43
2018-05-17T05:58:46.557Z,7.67
2018-05-17T06:01:12.645Z,7.00
2018-05-17T06:03:38.695Z,7.00
2018-05-17T06:06:04.740Z,7.77
2018-05-17T06:08:30.799Z,6.57
2018-05-17T06:10:57.585Z,7.53
2018-05-17T06:13:23.672Z,8.80
2018-05-17T06:15:49.697Z,7.33
2018-05-17T06:18:15.771Z,7.30
2018-05-17T06:20:41.875Z,9.33
2018-05-17T06:23:07.930Z,8.30
2018-05-17T06:25:34.731Z,9.70
2018-05-17T06:28:00.893Z,8.47
2018-05-17T06:30:27.031Z,6.30
2018-05-17T06:32:53.063Z,7.83
2018-05-17T06:35:19.120Z,7.70
2018-05-17T06:37:45.186Z,7.27
2018-05-17T06:40:11.253Z,7.47
2018-05-17T06:42:37.553Z,7.83
2018-05-17T06:45:04.115Z,7.20
2018-05-17T06:47:30.185Z,8.37
2018-05-17T06:49:56.281Z,7.37
2018-05-17T06:52:24.449Z,8.67
2018-05-17T06:54:50.528Z,7.47
2018-05-17T06:57:16.629Z,7.80
2018-05-17T06:59:42.717Z,6.67
2018-05-17T07:02:08.865Z,8.60
2018-05-17T07:04:35.011Z,7.57
2018-05-17T07:07:01.110Z,6.70
2018-05-17T07:09:27.946Z,8.57
2018-05-17T07:11:54.274Z,8.80
2018-05-17T07:14:20.348Z,7.33
2018-05-17T07:16:47.174Z,7.97
2018-05-17T07:19:13.346Z,8.30
2018-05-17T07:21:39.400Z,7.70
2018-05-17T07:24:05.538Z,8.53
2018-05-17T07:26:32.314Z,8.00
2018-05-17T07:28:58.350Z,8.40
2018-05-17T07:31:24.551Z,9.00
2018-05-17T07:33:50.544Z,7.07
2018-05-17T07:36:16.696Z,6.93
2018-05-17T07:38:42.743Z,6.60
2018-05-17T07:41:08.788Z,7.60
2018-05-17T07:43:34.886Z,6.97
2018-05-17T07:46:00.975Z,9.00
2018-05-17T07:48:27.824Z,8.50
2018-05-17T07:50:54.617Z,8.70
2018-05-17T07:53:21.013Z,8.63
2018-05-17T07:55:47.182Z,8.73
2018-05-17T07:58:13.247Z,7.50
2018-05-17T08:00:39.306Z,7.55
2018-05-17T08:03:05.435Z,8.32
2018-05-17T08:05:31.513Z,8.57
2018-05-17T08:07:57.542Z,8.57
2018-05-17T08:10:24.378Z,8.40
2018-05-17T08:12:50.435Z,8.52
2018-05-17T08:15:17.328Z,8.50
2018-05-17T08:17:43.401Z,8.35
2018-05-17T08:20:09.448Z,8.60
2018-05-17T08:22:35.500Z,8.30
2018-05-17T08:25:01.592Z,8.05
2018-05-17T08:27:27.671Z,7.60
2018-05-17T08:29:53.773Z,8.50
2018-05-17T08:32:19.928Z,8.95
2018-05-17T08:34:46.078Z,8.73
2018-05-17T08:37:12.161Z,9.35
2018-05-17T08:39:38.326Z,8.40
2018-05-17T08:42:04.385Z,8.07
2018-05-17T08:44:30.442Z,8.60
2018-05-17T08:46:56.625Z,8.30
2018-05-17T08:49:22.787Z,9.00
2018-05-17T08:51:48.886Z,9.32
2018-05-17T08:54:15.138Z,8.10
2018-05-17T08:56:41.241Z,8.50
2018-05-17T08:59:07.301Z,8.52
2018-05-17T09:01:34.119Z,8.00
2018-05-17T09:04:00.204Z,9.45
2018-05-17T09:06:26.981Z,8.50
2018-05-17T09:08:53.026Z,7.70
2018-05-17T09:11:19.098Z,7.20
2018-05-17T09:13:45.148Z,8.07
2018-05-17T09:16:11.218Z,8.07
2018-05-17T09:18:37.328Z,8.60
2018-05-17T09:21:03.415Z,8.55
2018-05-17T09:23:29.468Z,8.30
2018-05-17T09:25:55.552Z,7.85
2018-05-17T09:28:22.385Z,9.13
2018-05-17T09:30:48.463Z,7.53
2018-05-17T09:33:14.516Z,6.30
2018-05-17T09:35:40.641Z,7.70
2018-05-17T09:38:06.680Z,6.77
2018-05-17T09:40:32.862Z,7.03
2018-05-17T09:42:59.650Z,6.23
2018-05-17T09:45:25.746Z,9.30
2018-05-17T09:47:51.824Z,8.10
2018-05-17T09:50:18.090Z,8.27
2018-05-17T09:52:44.359Z,8.55
2018-05-17T09:55:10.748Z,7.07
2018-05-17T09:57:36.803Z,7.65
2018-05-17T10:00:02.946Z,7.43
2018-05-17T10:02:29.006Z,8.73
2018-05-17T10:04:55.095Z,8.38
2018-05-17T10:07:21.192Z,8.48
2018-05-17T10:09:47.253Z,8.80
2018-05-17T10:12:13.304Z,7.30
2018-05-17T10:14:39.370Z,8.20
2018-05-17T10:17:05.940Z,9.10
2018-05-17T10:19:32.009Z,8.55
2018-05-17T10:21:58.090Z,8.85
2018-05-17T10:24:24.158Z,9.10
2018-05-17T10:26:50.253Z,8.43
2018-05-17T10:29:17.105Z,8.32
2018-05-17T10:31:43.957Z,7.95
2018-05-17T10:34:12.035Z,8.38
2018-05-17T10:36:38.141Z,8.63
2018-05-17T10:39:04.502Z,8.00
2018-05-17T10:41:30.610Z,8.52
2018-05-17T10:43:56.694Z,7.33
2018-05-17T10:46:22.745Z,8.18
2018-05-17T10:48:49.794Z,8.37
2018-05-17T10:51:15.965Z,7.73
2018-05-17T10:53:42.043Z,7.30
2018-05-17T10:56:08.070Z,6.60
2018-05-17T10:58:34.205Z,7.30
2018-05-17T11:01:00.234Z,6.47
2018-05-17T11:03:26.321Z,7.47
2018-05-17T11:10:44.627Z,8.38
2018-05-17T11:13:10.769Z,9.38
2018-05-17T11:15:36.854Z,10.23
2018-05-17T11:18:02.979Z,9.30
2018-05-17T11:20:29.029Z,7.72
2018-05-17T11:22:55.107Z,7.95
2018-05-17T11:25:21.172Z,8.52
2018-05-17T11:27:48.103Z,8.40
2018-05-17T11:30:14.155Z,9.75
2018-05-17T11:32:40.254Z,9.43
2018-05-17T11:35:06.365Z,7.90
2018-05-17T11:37:33.218Z,8.20
2018-05-17T11:40:00.091Z,8.13
2018-05-17T11:42:26.253Z,8.90
2018-05-17T11:44:52.306Z,9.80
2018-05-17T11:47:18.397Z,9.80
2018-05-17T11:49:44.742Z,8.27
2018-05-17T11:52:11.172Z,8.00
2018-05-17T11:54:37.320Z,9.10
2018-05-17T11:57:04.501Z,10.20
2018-05-17T11:59:30.608Z,8.95
2018-05-17T12:01:56.677Z,9.30
2018-05-17T12:04:22.808Z,7.93
2018-05-17T12:06:48.900Z,10.07
2018-05-17T12:09:15.917Z,8.80
2018-05-17T12:11:42.024Z,7.57
2018-05-17T12:19:01.566Z,9.20
2018-05-17T12:21:27.649Z,8.03
2018-05-17T12:23:53.702Z,8.70
2018-05-17T12:26:19.802Z,7.70
2018-05-17T12:28:45.947Z,8.27
2018-05-17T12:57:59.871Z,10.45
2018-05-17T13:00:25.952Z,9.47
2018-05-17T13:02:52.067Z,8.80
2018-05-17T13:05:22.861Z,9.83
2018-05-17T13:07:48.983Z,9.47
2018-05-17T13:10:15.091Z,7.87
2018-05-17T13:12:41.157Z,9.93
2018-05-17T13:15:07.208Z,9.03
2018-05-17T13:17:33.282Z,9.33
2018-05-17T13:19:59.348Z,10.63
2018-05-17T13:22:25.416Z,10.90
2018-05-17T13:24:51.505Z,8.37
2018-05-17T13:27:17.646Z,9.60
2018-05-17T13:29:43.717Z,10.03
2018-05-17T13:32:09.763Z,9.93
2018-05-17T13:34:35.856Z,10.00
2018-05-17T13:37:02.086Z,9.73
2018-05-17T13:39:28.139Z,11.30
2018-05-17T13:41:54.191Z,11.10
2018-05-17T13:44:20.309Z,10.43
2018-05-17T13:46:46.471Z,10.37
2018-05-17T13:49:12.594Z,9.67
2018-05-17T13:51:38.609Z,9.80
2018-05-17T13:54:04.680Z,10.77
2018-05-17T13:56:30.721Z,12.10
2018-05-17T13:58:56.777Z,11.83
2018-05-17T14:01:22.901Z,12.77
2018-05-17T14:03:49.024Z,11.60
2018-05-17T14:06:15.116Z,11.53
2018-05-17T14:08:41.258Z,11.47
2018-05-17T14:11:07.314Z,10.93
2018-05-17T14:13:33.355Z,11.23
2018-05-17T14:15:59.404Z,9.90
2018-05-17T14:18:25.456Z,9.33
2018-05-17T14:20:51.810Z,10.63
2018-05-17T14:23:17.889Z,10.30
2018-05-17T14:25:43.960Z,9.47
2018-05-17T14:28:10.098Z,10.23
2018-05-17T14:30:36.166Z,9.10
2018-05-17T14:33:03.104Z,10.83
2018-05-17T14:35:29.198Z,10.10
2018-05-17T14:37:55.264Z,10.27
2018-05-17T14:40:21.346Z,9.73
2018-05-17T14:42:48.168Z,10.10
2018-05-17T14:45:14.434Z,9.73
2018-05-17T14:47:41.257Z,8.90
2018-05-17T14:50:07.505Z,8.67
2018-05-17T14:52:34.302Z,10.07
2018-05-17T14:55:00.420Z,9.80
2018-05-17T14:57:26.463Z,10.50
2018-05-17T14:59:53.252Z,8.73
2018-05-17T15:02:19.373Z,12.10
2018-05-17T15:04:45.485Z,9.93
2018-05-17T15:07:12.253Z,9.63
2018-05-17T15:09:38.309Z,9.70
2018-05-17T15:12:04.380Z,10.17
2018-05-17T15:14:30.421Z,10.07
2018-05-17T15:16:56.468Z,9.50
2018-05-17T15:19:22.479Z,11.10
2018-05-17T15:21:48.574Z,10.67
2018-05-17T15:24:14.696Z,11.77
2018-05-17T15:26:41.514Z,11.10
2018-05-17T15:29:07.538Z,10.67
2018-05-17T15:31:33.594Z,10.10
2018-05-17T15:33:59.656Z,11.17
2018-05-17T15:36:25.698Z,9.43
2018-05-17T15:38:51.764Z,8.77
2018-05-17T15:41:18.215Z,10.10
2018-05-17T15:43:44.291Z,11.07
2018-05-17T15:46:10.421Z,9.13
2018-05-17T15:48:36.522Z,9.33
2018-05-17T15:51:02.560Z,8.73
2018-05-17T15:53:29.475Z,9.83
2018-05-17T15:55:55.639Z,9.20
2018-05-17T15:58:21.752Z,9.00
2018-05-17T16:00:47.837Z,9.13
2018-05-17T16:03:14.659Z,7.87
2018-05-17T16:05:40.728Z,7.80
2018-05-17T16:08:06.760Z,8.37
2018-05-17T16:10:33.531Z,8.00
2018-05-17T16:12:59.633Z,7.03
2018-05-17T16:15:25.904Z,8.07
2018-05-17T16:17:51.823Z,6.10
2018-05-17T16:20:18.625Z,6.80
2018-05-17T16:22:44.699Z,6.57
2018-05-17T16:25:10.763Z,5.97
2018-05-17T16:27:37.563Z,8.03
2018-05-17T16:30:03.647Z,8.67
2018-05-17T16:32:30.433Z,6.87
2018-05-17T16:34:56.511Z,7.57
2018-05-17T16:37:22.597Z,6.93
2018-05-17T16:39:48.661Z,7.23
2018-05-17T16:42:14.727Z,8.70
2018-05-17T16:44:40.740Z,8.13
2018-05-17T16:47:06.789Z,8.90
2018-05-17T16:49:32.856Z,8.83
2018-05-17T16:51:58.936Z,8.73
2018-05-17T16:54:25.050Z,8.30
2018-05-17T16:56:51.097Z,8.00
2018-05-17T16:59:17.187Z,8.10
2018-05-17T17:01:43.224Z,8.60
2018-05-17T17:04:09.282Z,8.20
2018-05-17T17:06:35.333Z,8.33
2018-05-17T17:09:02.120Z,7.80
2018-05-17T17:11:28.250Z,7.70
2018-05-17T17:13:54.267Z,6.77
2018-05-17T17:16:21.027Z,8.67
2018-05-17T17:18:47.107Z,8.30
2018-05-17T17:21:13.156Z,11.20
2018-05-17T17:23:39.195Z,10.20
2018-05-17T17:26:05.223Z,10.90
2018-05-17T17:28:32.050Z,11.00
2018-05-17T17:30:58.220Z,10.70
2018-05-17T17:33:24.277Z,11.00
2018-05-17T17:35:50.328Z,10.53
2018-05-17T17:38:17.172Z,12.03
2018-05-17T17:40:49.290Z,12.27
2018-05-17T17:43:15.361Z,12.97
2018-05-17T17:45:48.509Z,11.37
2018-05-17T17:48:16.168Z,12.13
2018-05-17T17:50:42.208Z,10.80
2018-05-17T17:53:08.252Z,10.50
2018-05-17T17:55:34.275Z,11.47
2018-05-17T17:58:00.462Z,11.50
2018-05-17T18:00:26.597Z,12.47
2018-05-17T18:02:52.680Z,14.30
2018-05-17T18:05:18.738Z,12.80
2018-05-17T18:07:44.804Z,12.50
2018-05-17T18:10:10.881Z,10.30
2018-05-17T18:12:36.933Z,13.60
2018-05-17T18:15:03.283Z,14.87
2018-05-17T18:17:29.367Z,15.77
2018-05-17T18:22:53.255Z,13.13
2018-05-17T18:25:19.526Z,12.13
2018-05-17T18:27:45.621Z,12.40
2018-05-17T18:30:11.704Z,13.33
2018-05-17T18:32:37.775Z,12.30
2018-05-17T18:35:03.898Z,12.03
2018-05-17T18:37:29.937Z,12.80
2018-05-17T18:39:55.980Z,11.50
2018-05-17T18:42:22.022Z,10.80
2018-05-17T18:44:48.163Z,13.57
2018-05-17T18:47:14.218Z,12.13
2018-05-17T18:49:40.250Z,14.30
2018-05-17T18:52:06.334Z,22.73
2018-05-17T18:54:33.108Z,60.40
2018-05-17T18:56:59.191Z,20.63
2018-05-17T18:59:25.334Z,15.10
2018-05-17T19:01:51.467Z,16.03
2018-05-17T19:04:18.223Z,15.90
2018-05-17T19:06:44.329Z,15.60
2018-05-17T19:09:10.409Z,13.90
2018-05-17T19:11:36.501Z,14.80
2018-05-17T19:14:02.739Z,12.97
2018-05-17T19:16:28.780Z,14.40
2018-05-17T19:18:54.823Z,13.87
2018-05-17T19:21:20.900Z,13.07
2018-05-17T19:23:47.072Z,14.60
2018-05-17T19:26:13.175Z,13.17
2018-05-17T19:28:39.313Z,14.60
2018-05-17T19:31:06.129Z,14.00
2018-05-17T19:33:32.239Z,14.63
2018-05-17T19:35:58.283Z,14.90
2018-05-17T19:38:25.123Z,16.73
2018-05-17T19:40:51.204Z,15.90
2018-05-17T19:43:17.378Z,13.67
2018-05-17T19:45:43.505Z,13.20
2018-05-17T19:48:09.469Z,14.53
2018-05-17T19:50:35.923Z,15.27
2018-05-17T19:53:02.009Z,14.70
2018-05-17T19:55:28.018Z,13.37
2018-05-17T19:57:54.382Z,16.00
2018-05-17T20:00:20.496Z,14.63
2018-05-17T20:02:47.339Z,13.80
2018-05-17T20:05:13.706Z,15.33
2018-05-17T20:07:39.737Z,13.57
2018-05-17T20:10:05.833Z,13.70
2018-05-17T20:12:31.879Z,11.77
2018-05-17T20:14:57.929Z,12.07
2018-05-17T20:17:23.966Z,12.07
2018-05-17T20:19:50.042Z,12.80
2018-05-17T20:22:16.251Z,11.97
2018-05-17T20:24:42.387Z,10.60
2018-05-17T20:27:08.451Z,11.10
2018-05-17T20:29:34.654Z,11.43
2018-05-17T20:32:00.712Z,11.30
2018-05-17T20:34:26.776Z,13.23
2018-05-17T20:36:52.853Z,11.47
2018-05-17T20:39:18.942Z,11.90
2018-05-17T20:41:45.053Z,10.20
2018-05-17T20:44:11.869Z,10.50
2018-05-17T20:46:38.368Z,11.07
2018-05-17T20:49:05.127Z,9.83
2018-05-17T20:51:31.907Z,10.37
2018-05-17T20:53:57.990Z,9.47
2018-05-17T20:56:24.062Z,10.07
2018-05-17T20:58:50.857Z,9.80
2018-05-17T21:01:16.946Z,11.77
2018-05-17T21:03:42.965Z,11.20
2018-05-17T21:06:08.992Z,10.43
2018-05-17T21:08:35.105Z,10.53
2018-05-17T21:11:01.235Z,11.43
2018-05-17T21:13:27.245Z,9.67
2018-05-17T21:15:53.278Z,9.83
2018-05-17T21:18:19.601Z,10.80
2018-05-17T21:20:45.658Z,11.03
2018-05-17T21:23:11.702Z,10.23
2018-05-17T21:25:37.750Z,9.23
2018-05-17T21:28:03.798Z,10.30
2018-05-17T21:30:30.097Z,10.90
2018-05-17T21:32:56.936Z,9.57
2018-05-17T21:35:22.992Z,9.70
2018-05-17T21:37:49.804Z,9.17
2018-05-17T21:40:15.894Z,9.73
2018-05-17T21:42:42.702Z,9.40
2018-05-17T21:45:08.725Z,8.40
2018-05-17T21:47:34.853Z,8.87
2018-05-17T21:50:00.907Z,9.47
2018-05-17T21:52:26.969Z,7.87
2018-05-17T21:54:53.009Z,8.90
2018-05-17T21:57:19.079Z,8.93
2018-05-17T21:59:45.167Z,7.50
2018-05-17T22:02:11.206Z,8.30
2018-05-17T22:04:37.323Z,8.90
2018-05-17T22:07:03.360Z,8.30
2018-05-17T22:09:29.401Z,9.90
2018-05-17T22:11:55.477Z,8.67
2018-05-17T22:14:21.849Z,7.97
2018-05-17T22:16:47.918Z,7.87
2018-05-17T22:19:13.982Z,7.67
2018-05-17T22:21:40.129Z,7.90
2018-05-17T22:24:06.158Z,8.33
2018-05-17T22:26:32.254Z,7.80
2018-05-17T22:28:58.275Z,8.10
2018-05-17T22:31:24.312Z,8.33
2018-05-17T22:33:50.353Z,9.23
2018-05-17T22:36:16.521Z,7.73
2018-05-17T22:38:42.591Z,9.13
2018-05-17T22:41:08.626Z,7.20
2018-05-17T22:43:34.706Z,7.20
2018-05-17T22:46:00.876Z,7.77
2018-05-17T22:48:27.693Z,10.03
2018-05-17T22:50:54.456Z,7.87
2018-05-17T22:53:20.725Z,8.60
2018-05-17T22:55:46.905Z,8.30
2018-05-17T22:58:25.374Z,7.70
2018-05-17T23:00:51.504Z,7.20
2018-05-17T23:03:17.582Z,8.13
2018-05-17T23:05:43.621Z,7.60
2018-05-17T23:08:09.669Z,10.53
2018-05-17T23:10:35.918Z,8.40
2018-05-17T23:13:02.023Z,8.70
2018-05-17T23:15:28.102Z,9.23
2018-05-17T23:17:54.225Z,8.70
2018-05-17T23:20:20.267Z,8.07
2018-05-17T23:22:46.364Z,10.03
2018-05-17T23:25:12.408Z,8.67
2018-05-17T23:27:38.488Z,10.23
2018-05-17T23:30:04.597Z,8.70
2018-05-17T23:32:30.660Z,9.73
2018-05-17T23:34:56.692Z,9.10
2018-05-17T23:37:23.059Z,9.77
2018-05-17T23:39:49.859Z,8.57
2018-05-17T23:42:15.907Z,8.83
2018-05-17T23:44:42.005Z,8.10
2018-05-17T23:47:08.877Z,9.00
2018-05-17T23:49:34.925Z,6.90
2018-05-17T23:52:01.015Z,8.50
2018-05-17T23:54:27.145Z,9.60
2018-05-17T23:56:53.509Z,7.93
2018-05-17T23:59:20.311Z,8.60
